Time;durP1;ratioP1;P1;durP2;ratioP2;P2;SDS_P1;SDS_P2;PMS_P1;PMS_P2;Temp;Humidity;BMP_temperature;BMP_pressure;BME280_temperature;BME280_humidity;BME280_pressure;Samples;Min_cycle;Max_cycle;Signal;HPM_P1;HPM_P2
2022/11/13 00:01:22;;;;;;;8.80;5.05;;;10.50;99.90;;;;;;5012494;28;20057;-66
2022/11/13 00:04:45;;;;;;;6.30;4.00;;;10.20;99.90;;;;;;5011885;28;20152;-66
2022/11/13 00:08:07;;;;;;;4.20;2.70;;;10.10;99.90;;;;;;5012962;28;20033;-65
2022/11/13 00:11:30;;;;;;;4.70;2.85;;;10.10;99.90;;;;;;5011809;28;20041;-65
2022/11/13 00:14:52;;;;;;;7.03;3.53;;;10.20;99.90;;;;;;5012784;28;20037;-65
2022/11/13 00:18:15;;;;;;;4.65;2.85;;;10.20;99.90;;;;;;5012663;28;20381;-65
2022/11/13 00:21:37;;;;;;;4.05;2.75;;;10.10;99.90;;;;;;5013092;28;20053;-65
2022/11/13 00:25:00;;;;;;;5.38;2.95;;;10.00;99.90;;;;;;5012397;28;20052;-65
2022/11/13 00:28:22;;;;;;;;;;;9.90;99.90;;;;;;5012917;28;20040;-66
2022/11/13 00:31:45;;;;;;;5.68;3.28;;;9.80;99.90;;;;;;5012311;28;19924;-66
2022/11/13 00:35:07;;;;;;;5.60;2.90;;;9.80;99.90;;;;;;5012195;28;20033;-65
2022/11/13 00:38:30;;;;;;;5.70;2.35;;;9.80;99.90;;;;;;5012462;28;20030;-65
2022/11/13 00:41:53;;;;;;;9.70;2.58;;;9.90;99.90;;;;;;5012192;28;20042;-66
2022/11/13 00:45:15;;;;;;;4.75;2.70;;;10.00;99.90;;;;;;5011696;28;20050;-65
2022/11/13 00:48:40;;;;;;;6.70;3.22;;;10.00;99.90;;;;;;5012211;28;20052;-65
2022/11/13 00:52:04;;;;;;;12.13;3.00;;;9.80;99.90;;;;;;5011717;28;20049;-66
2022/11/13 00:55:27;;;;;;;5.57;3.42;;;9.70;99.90;;;;;;5011836;28;20045;-66
2022/11/13 00:58:51;;;;;;;4.90;2.75;;;9.50;99.90;;;;;;5012109;28;20042;-65
2022/11/13 01:02:14;;;;;;;3.83;2.40;;;9.40;99.90;;;;;;5013770;28;20054;-65
2022/11/13 01:05:39;;;;;;;7.20;2.88;;;9.40;99.90;;;;;;5011612;28;20038;-66
2022/11/13 01:09:02;;;;;;;9.05;2.95;;;9.50;99.90;;;;;;5011779;28;20034;-65
2022/11/13 01:12:24;;;;;;;6.60;2.47;;;9.40;99.90;;;;;;5010798;28;20042;-66
2022/11/13 01:15:48;;;;;;;4.95;2.65;;;9.80;99.90;;;;;;5011865;28;20034;-65
2022/11/13 01:19:10;;;;;;;4.10;2.35;;;9.90;99.90;;;;;;5011726;28;20029;-65
2022/11/13 01:22:34;;;;;;;6.03;3.08;;;9.90;99.90;;;;;;5011447;28;20041;-65
2022/11/13 01:26:05;;;;;;;6.78;3.17;;;9.80;99.90;;;;;;5011793;28;20045;-65
2022/11/13 01:29:27;;;;;;;6.07;2.70;;;9.80;99.90;;;;;;5011829;28;20469;-66
2022/11/13 01:32:50;;;;;;;;;;;9.70;99.90;;;;;;5012137;28;20041;-65
2022/11/13 01:36:19;;;;;;;4.90;3.10;;;9.50;99.90;;;;;;5011626;28;20360;-65
2022/11/13 01:39:42;;;;;;;4.53;2.60;;;9.30;99.90;;;;;;5011605;28;20034;-66
2022/11/13 01:43:25;;;;;;;4.93;2.90;;;9.30;99.90;;;;;;5011422;28;20030;-65
2022/11/13 01:46:55;;;;;;;6.63;3.38;;;9.40;99.90;;;;;;5011458;28;20379;-65
2022/11/13 01:50:18;;;;;;;7.75;3.72;;;9.30;99.90;;;;;;5011182;28;20060;-65
2022/11/13 01:53:44;;;;;;;8.10;3.47;;;9.10;99.90;;;;;;5011062;28;20034;-65
2022/11/13 01:57:08;;;;;;;8.15;4.40;;;8.90;99.90;;;;;;5011201;28;20042;-65
2022/11/13 02:00:30;;;;;;;6.65;3.20;;;8.90;99.90;;;;;;5011070;28;20038;-65
2022/11/13 02:03:52;;;;;;;6.07;2.80;;;8.90;99.90;;;;;;5013506;28;20482;-65
2022/11/13 02:07:18;;;;;;;5.72;2.90;;;9.30;99.90;;;;;;5015248;28;20042;-65
2022/11/13 02:10:41;;;;;;;7.22;2.80;;;9.20;99.90;;;;;;5014530;28;20049;-64
2022/11/13 02:14:04;;;;;;;5.90;3.10;;;9.20;99.90;;;;;;5014793;28;20034;-65
2022/11/13 02:17:41;;;;;;;5.25;3.00;;;9.40;99.90;;;;;;5014869;28;20026;-65
2022/11/13 02:21:24;;;;;;;5.47;2.95;;;9.50;99.90;;;;;;5014525;28;20042;-65
2022/11/13 02:24:48;;;;;;;5.28;3.25;;;9.40;99.90;;;;;;5014660;28;20492;-65
2022/11/13 02:28:10;;;;;;;7.03;3.28;;;9.60;99.90;;;;;;5014788;28;20038;-65
2022/11/13 02:31:33;;;;;;;7.40;2.55;;;9.50;99.90;;;;;;5014356;28;20037;-66
2022/11/13 02:34:55;;;;;;;4.18;2.90;;;9.30;99.90;;;;;;5014229;28;20366;-65
2022/11/13 02:38:18;;;;;;;4.00;2.50;;;9.00;99.90;;;;;;5014597;28;20030;-65
2022/11/13 02:41:41;;;;;;;5.45;3.22;;;8.70;99.90;;;;;;5014636;28;20042;-65
2022/11/13 02:45:05;;;;;;;5.47;2.90;;;8.70;99.90;;;;;;5014367;28;20038;-65
2022/11/13 02:48:28;;;;;;;5.30;2.92;;;8.60;99.90;;;;;;5014465;28;20041;-66
2022/11/13 02:51:50;;;;;;;5.82;3.22;;;8.60;99.90;;;;;;5014080;28;20042;-66
2022/11/13 02:55:13;;;;;;;7.38;3.35;;;8.60;99.90;;;;;;5013896;28;20034;-65
2022/11/13 02:58:36;;;;;;;5.72;2.75;;;8.70;99.90;;;;;;5014370;28;20038;-67
2022/11/13 03:01:59;;;;;;;6.93;2.75;;;8.70;99.90;;;;;;5014209;28;20041;-65
2022/11/13 03:05:22;;;;;;;;;;;8.70;99.90;;;;;;5014051;28;20034;-64
2022/11/13 03:08:44;;;;;;;4.63;2.70;;;8.80;99.90;;;;;;5014081;28;19916;-65
2022/11/13 03:12:08;;;;;;;4.78;2.92;;;8.90;99.90;;;;;;5013720;28;20042;-65
2022/11/13 03:15:33;;;;;;;4.55;2.60;;;8.80;99.90;;;;;;5013113;28;20386;-65
2022/11/13 03:18:56;;;;;;;6.15;2.75;;;8.60;99.90;;;;;;5013276;28;20362;-66
2022/11/13 03:22:19;;;;;;;6.80;3.00;;;8.30;99.90;;;;;;5013669;28;20366;-65
2022/11/13 03:25:41;;;;;;;;;;;8.10;99.90;;;;;;5013764;28;20042;-67
2022/11/13 03:29:04;;;;;;;6.00;3.08;;;8.10;99.90;;;;;;5013383;28;19915;-65
2022/11/13 03:32:26;;;;;;;6.95;2.72;;;8.10;99.90;;;;;;5013398;28;20038;-66
2022/11/13 03:35:49;;;;;;;5.70;2.90;;;8.10;99.90;;;;;;5013483;28;20034;-65
2022/11/13 03:39:13;;;;;;;5.50;2.88;;;8.10;99.90;;;;;;5013203;28;20030;-65
2022/11/13 03:42:36;;;;;;;8.27;3.28;;;8.10;99.90;;;;;;5013318;28;20366;-65
2022/11/13 03:45:59;;;;;;;3.80;2.92;;;8.10;99.90;;;;;;5013195;28;20042;-65
2022/11/13 03:49:22;;;;;;;7.72;3.45;;;8.10;99.90;;;;;;5012983;28;20042;-66
2022/11/13 03:52:45;;;;;;;9.38;3.25;;;8.20;99.90;;;;;;5012905;28;20504;-66
2022/11/13 03:56:08;;;;;;;7.40;3.17;;;8.20;99.90;;;;;;5013246;28;20026;-66
2022/11/13 03:59:30;;;;;;;6.28;3.13;;;8.30;99.90;;;;;;5013073;28;20034;-65
2022/11/13 04:02:52;;;;;;;;;;;8.40;99.90;;;;;;5013577;28;20042;-66
2022/11/13 04:06:16;;;;;;;6.78;3.28;;;8.50;99.90;;;;;;5013403;28;19920;-65
2022/11/13 04:09:38;;;;;;;5.32;2.90;;;8.60;99.90;;;;;;5012927;28;20041;-65
2022/11/13 04:13:01;;;;;;;;;;;8.70;99.90;;;;;;5013157;28;20046;-65
2022/11/13 04:16:23;;;;;;;7.93;3.42;;;8.60;99.90;;;;;;5013097;28;19921;-65
2022/11/13 04:19:47;;;;;;;8.43;3.88;;;8.60;99.90;;;;;;5012789;28;20042;-66
2022/11/13 04:23:11;;;;;;;5.47;3.10;;;8.60;99.90;;;;;;5012631;28;20042;-65
2022/11/13 04:26:34;;;;;;;6.45;3.30;;;8.60;99.90;;;;;;5011914;28;20042;-66
2022/11/13 04:29:57;;;;;;;;;;;8.60;99.90;;;;;;5012740;28;20038;-65
2022/11/13 04:33:20;;;;;;;7.78;3.60;;;8.70;99.90;;;;;;5012372;28;19920;-65
2022/11/13 04:36:44;;;;;;;7.45;3.78;;;8.70;99.90;;;;;;5012839;28;20033;-66
2022/11/13 04:40:09;;;;;;;8.55;5.22;;;8.80;99.90;;;;;;5012387;28;20038;-65
2022/11/13 04:43:32;;;;;;;6.30;3.50;;;8.80;99.90;;;;;;5011916;28;20485;-65
2022/11/13 04:46:54;;;;;;;8.57;3.22;;;8.80;99.90;;;;;;5012363;28;20038;-65
2022/11/13 04:50:17;;;;;;;9.38;4.50;;;9.00;99.90;;;;;;5012301;28;20045;-65
2022/11/13 04:53:39;;;;;;;;;;;9.10;99.90;;;;;;5012289;28;20057;-65
2022/11/13 04:57:02;;;;;;;;;;;9.20;99.90;;;;;;5012642;28;19932;-65
2022/11/13 05:00:24;;;;;;;8.18;3.72;;;9.20;99.90;;;;;;5012233;28;19916;-65
2022/11/13 05:03:48;;;;;;;10.73;3.75;;;9.20;99.90;;;;;;5011570;28;20038;-65
2022/11/13 05:07:11;;;;;;;4.85;2.60;;;9.20;99.90;;;;;;5010989;28;20268;-66
2022/11/13 05:10:36;;;;;;;6.75;2.70;;;9.30;99.90;;;;;;5012069;28;20037;-66
2022/11/13 05:14:01;;;;;;;5.85;3.42;;;9.40;99.90;;;;;;5011877;28;20037;-66
2022/11/13 05:17:23;;;;;;;;;;;9.60;99.90;;;;;;5012281;28;20042;-66
2022/11/13 05:20:47;;;;;;;7.18;3.03;;;9.70;99.90;;;;;;5011794;28;20361;-66
2022/11/13 05:24:10;;;;;;;4.07;2.80;;;9.90;99.90;;;;;;5010830;28;20038;-66
2022/11/13 05:27:34;;;;;;;15.73;3.30;;;10.10;99.90;;;;;;5011581;28;20038;-65
2022/11/13 05:31:03;;;;;;;;;;;10.00;99.90;;;;;;5012055;28;20045;-66
2022/11/13 05:34:27;;;;;;;5.50;2.75;;;10.10;99.90;;;;;;5011609;28;19924;-66
2022/11/13 05:37:49;;;;;;;4.82;3.00;;;10.10;99.90;;;;;;5012267;28;20053;-66
2022/11/13 05:41:16;;;;;;;;;;;10.30;99.90;;;;;;5016540;28;20033;-65
2022/11/13 05:44:38;;;;;;;4.82;3.10;;;10.30;99.90;;;;;;5015380;28;19916;-64
2022/11/13 05:48:00;;;;;;;7.45;3.15;;;9.90;99.90;;;;;;5015354;28;20049;-65
2022/11/13 05:51:27;;;;;;;9.27;3.35;;;9.70;99.90;;;;;;5015637;28;20038;-66
2022/11/13 05:54:49;;;;;;;8.63;4.45;;;9.90;99.90;;;;;;5015363;28;20067;-65
2022/11/13 05:58:12;;;;;;;5.72;3.45;;;10.40;99.90;;;;;;5015309;28;20042;-65
2022/11/13 06:01:37;;;;;;;7.68;3.35;;;10.40;99.90;;;;;;5015489;28;20049;-66
2022/11/13 06:05:00;;;;;;;4.57;2.72;;;10.20;99.90;;;;;;5014605;28;20041;-65
2022/11/13 06:08:22;;;;;;;7.95;3.67;;;9.80;99.90;;;;;;5015133;28;20049;-65
2022/11/13 06:11:46;;;;;;;5.75;3.30;;;9.70;99.90;;;;;;5015037;28;20374;-65
2022/11/13 06:15:08;;;;;;;;;;;9.40;99.90;;;;;;5015289;28;20038;-66
2022/11/13 06:18:32;;;;;;;6.20;3.65;;;9.20;99.90;;;;;;5015017;28;19916;-65
2022/11/13 06:21:54;;;;;;;6.85;3.95;;;9.10;99.90;;;;;;5014885;28;20038;-66
2022/11/13 06:25:17;;;;;;;6.35;3.90;;;9.00;99.90;;;;;;5015135;28;20042;-65
2022/11/13 06:28:40;;;;;;;10.90;3.83;;;9.20;99.90;;;;;;5014815;28;20038;-66
2022/11/13 06:32:03;;;;;;;6.03;3.80;;;9.40;99.90;;;;;;5013503;28;20393;-66
2022/11/13 06:35:26;;;;;;;11.15;4.75;;;9.80;99.90;;;;;;5014409;28;20468;-66
2022/11/13 06:38:50;;;;;;;6.20;4.05;;;10.80;99.90;;;;;;5014685;28;20069;-65
2022/11/13 06:42:14;;;;;;;10.48;4.13;;;11.00;99.90;;;;;;5015146;28;20049;-67
2022/11/13 06:45:36;;;;;;;7.97;4.45;;;11.20;99.90;;;;;;5014391;28;20053;-65
2022/11/13 06:48:59;;;;;;;5.78;4.22;;;10.70;99.90;;;;;;5013967;28;20049;-66
2022/11/13 06:52:22;;;;;;;6.53;4.35;;;11.20;99.90;;;;;;5014114;28;20041;-65
2022/11/13 06:55:46;;;;;;;7.38;4.22;;;11.80;99.90;;;;;;5013429;28;20037;-66
2022/11/13 06:59:11;;;;;;;10.23;3.72;;;11.80;99.90;;;;;;5014124;28;20053;-66
2022/11/13 07:02:35;;;;;;;9.55;4.03;;;11.40;99.90;;;;;;5014090;28;20045;-65
2022/11/13 07:06:03;;;;;;;7.05;3.70;;;12.40;99.90;;;;;;5013693;28;20056;-65
2022/11/13 07:09:28;;;;;;;5.55;3.40;;;14.80;99.90;;;;;;5013988;28;20507;-66
2022/11/13 07:12:51;;;;;;;6.25;3.22;;;17.90;99.90;;;;;;5012840;28;20520;-66
2022/11/13 07:16:14;;;;;;;6.55;3.67;;;20.10;99.90;;;;;;5013789;28;20040;-66
2022/11/13 07:19:36;;;;;;;5.07;2.83;;;19.10;99.90;;;;;;5013918;28;20280;-65
2022/11/13 07:23:00;;;;;;;6.78;3.88;;;17.90;99.90;;;;;;5013739;28;20109;-65
2022/11/13 07:26:23;;;;;;;9.65;3.83;;;16.90;99.90;;;;;;5013660;28;20080;-65
2022/11/13 07:29:45;;;;;;;5.43;3.63;;;16.90;99.90;;;;;;5013772;28;20045;-66
2022/11/13 07:33:08;;;;;;;5.63;3.15;;;19.70;99.90;;;;;;5013340;28;20512;-66
2022/11/13 07:36:31;;;;;;;5.78;3.33;;;22.60;99.90;;;;;;5013050;28;20049;-67
2022/11/13 07:39:53;;;;;;;5.15;3.22;;;25.10;97.50;;;;;;5013464;28;20048;-67
2022/11/13 07:43:17;;;;;;;5.22;3.70;;;26.50;95.10;;;;;;5013266;28;20045;-67
2022/11/13 07:46:39;;;;;;;6.18;3.63;;;26.30;94.20;;;;;;5012931;28;20070;-67
2022/11/13 07:50:03;;;;;;;5.25;2.75;;;27.70;93.40;;;;;;5013328;28;20053;-67
2022/11/13 07:53:26;;;;;;;5.45;3.80;;;28.40;91.80;;;;;;5012527;28;20066;-66
2022/11/13 07:56:51;;;;;;;10.80;6.25;;;30.10;90.50;;;;;;5013065;28;20053;-67
2022/11/13 08:00:16;;;;;;;8.52;5.47;;;29.90;88.40;;;;;;5012557;28;20045;-67
2022/11/13 08:03:39;;;;;;;5.25;3.65;;;28.70;88.30;;;;;;5012544;28;20053;-67
2022/11/13 08:07:01;;;;;;;5.55;4.10;;;29.10;88.60;;;;;;5012714;28;20504;-67
2022/11/13 08:10:24;;;;;;;4.82;3.45;;;29.10;87.70;;;;;;5012593;28;20049;-66
2022/11/13 08:13:47;;;;;;;4.88;3.90;;;28.60;87.20;;;;;;5012306;28;20053;-66
2022/11/13 08:17:10;;;;;;;7.78;5.18;;;25.80;90.00;;;;;;5013085;28;20040;-65
2022/11/13 08:20:33;;;;;;;7.72;3.88;;;24.10;91.80;;;;;;5012528;28;20052;-65
2022/11/13 08:23:55;;;;;;;5.82;3.80;;;24.70;92.10;;;;;;5012571;28;20033;-66
2022/11/13 08:27:20;;;;;;;6.50;3.70;;;27.00;90.90;;;;;;5012292;28;20041;-67
2022/11/13 08:30:44;;;;;;;7.43;5.00;;;27.30;90.20;;;;;;5012466;28;20038;-66
2022/11/13 08:34:06;;;;;;;5.95;4.30;;;28.00;89.20;;;;;;5012216;28;20048;-66
2022/11/13 08:37:28;;;;;;;6.45;3.60;;;29.70;88.60;;;;;;5012244;28;20037;-65
2022/11/13 08:40:51;;;;;;;7.22;4.03;;;30.90;85.10;;;;;;5012285;28;20381;-67
2022/11/13 08:44:14;;;;;;;5.95;3.72;;;31.30;84.80;;;;;;5012111;28;20049;-66
2022/11/13 08:47:38;;;;;;;5.32;3.80;;;32.40;83.00;;;;;;5011979;28;20109;-66
2022/11/13 08:51:05;;;;;;;5.05;3.38;;;32.10;82.30;;;;;;5012326;28;20046;-67
2022/11/13 08:54:28;;;;;;;6.05;3.33;;;31.40;80.90;;;;;;5011710;28;20057;-67
2022/11/13 08:57:50;;;;;;;6.15;3.20;;;33.10;79.10;;;;;;5012404;28;20045;-69
2022/11/13 09:01:13;;;;;;;6.38;3.55;;;34.50;76.80;;;;;;5012005;28;20045;-66
2022/11/13 09:04:38;;;;;;;4.32;3.20;;;34.60;75.80;;;;;;5011711;28;20121;-66
2022/11/13 09:08:01;;;;;;;8.93;3.40;;;35.80;75.40;;;;;;5011844;28;20041;-66
2022/11/13 09:11:26;;;;;;;5.28;3.65;;;33.50;74.50;;;;;;5010883;28;20540;-65
2022/11/13 09:14:49;;;;;;;5.75;4.00;;;30.00;77.20;;;;;;5010940;28;20048;-65
2022/11/13 09:18:12;;;;;;;7.60;4.38;;;25.70;80.20;;;;;;5011643;28;20052;-66
2022/11/13 09:21:35;;;;;;;5.78;4.20;;;22.60;87.80;;;;;;5011997;28;20049;-66
2022/11/13 09:24:57;;;;;;;7.35;4.63;;;21.10;90.50;;;;;;5011460;28;20037;-67
2022/11/13 09:28:20;;;;;;;5.90;4.43;;;20.10;92.10;;;;;;5011916;28;20048;-66
2022/11/13 09:31:43;;;;;;;5.88;4.15;;;19.40;93.50;;;;;;5011873;28;20048;-67
2022/11/13 09:35:06;;;;;;;7.25;5.05;;;18.80;94.80;;;;;;5011686;28;20041;-66
2022/11/13 09:38:30;;;;;;;8.20;4.55;;;18.30;96.40;;;;;;5011854;28;20041;-67
2022/11/13 09:42:11;;;;;;;4.97;3.67;;;17.90;97.30;;;;;;5011849;28;20061;-68
2022/11/13 09:45:35;;;;;;;3.35;2.90;;;17.50;98.30;;;;;;5011801;28;20053;-68
2022/11/13 09:49:25;;;;;;;5.78;3.15;;;17.30;99.10;;;;;;5011774;28;20060;-66
2022/11/13 09:52:48;;;;;;;8.18;4.63;;;17.10;99.60;;;;;;5011477;28;20128;-68
2022/11/13 09:56:33;;;;;;;4.50;3.30;;;16.80;99.90;;;;;;5011447;28;20041;-67
2022/11/13 10:00:14;;;;;;;8.13;3.85;;;16.70;99.90;;;;;;5011364;28;20048;-67
2022/11/13 10:03:46;;;;;;;4.90;3.90;;;16.90;99.90;;;;;;5011233;28;20064;-68
2022/11/13 10:07:23;;;;;;;3.95;3.17;;;17.20;99.90;;;;;;5011472;28;20041;-67
2022/11/13 10:10:55;;;;;;;5.90;3.85;;;17.20;99.90;;;;;;5011181;28;20153;-67
2022/11/13 10:14:42;;;;;;;3.70;3.20;;;17.30;99.90;;;;;;5011186;28;20049;-67
2022/11/13 10:18:24;;;;;;;14.13;8.43;;;17.40;99.70;;;;;;5011118;28;20046;-66
2022/11/13 10:22:11;;;;;;;6.75;4.20;;;17.30;99.90;;;;;;5011734;28;20052;-67
2022/11/13 10:25:36;;;;;;;11.85;6.20;;;17.10;99.90;;;;;;5014357;28;20134;-67
2022/11/13 10:29:19;;;;;;;6.90;4.68;;;17.00;99.90;;;;;;5014839;28;20064;-68
2022/11/13 10:32:45;;;;;;;8.43;5.50;;;16.70;99.90;;;;;;5014899;28;20045;-67
2022/11/13 10:36:19;;;;;;;7.13;5.40;;;16.50;99.90;;;;;;5014918;28;20049;-67
2022/11/13 10:39:43;;;;;;;8.60;4.35;;;16.20;99.90;;;;;;5014818;28;20405;-66
2022/11/13 10:43:17;;;;;;;5.80;4.75;;;16.40;99.90;;;;;;5014524;28;20053;-66
2022/11/13 10:46:40;;;;;;;27.42;19.90;;;16.70;99.90;;;;;;5014421;28;20049;-67
2022/11/13 10:50:31;;;;;;;11.88;7.30;;;17.20;99.90;;;;;;5014310;28;20382;-66
2022/11/13 10:53:56;;;;;;;7.63;5.82;;;17.50;98.70;;;;;;5013526;28;20160;-67
2022/11/13 10:57:34;;;;;;;11.75;8.45;;;17.90;98.50;;;;;;5014230;28;20044;-66
2022/11/13 11:00:57;;;;;;;12.82;8.40;;;18.20;98.70;;;;;;5013673;28;20053;-67
2022/11/13 11:04:28;;;;;;;29.52;15.82;;;18.40;99.70;;;;;;5014030;28;20275;-67
2022/11/13 11:07:54;;;;;;;11.18;7.05;;;18.90;99.50;;;;;;5014108;28;20421;-66
2022/11/13 11:15:05;;;;;;;8.50;5.97;;;18.60;99.00;;;;;;5013407;28;20610;-66
2022/11/13 11:18:39;;;;;;;10.63;6.68;;;18.70;98.50;;;;;;5013908;28;20048;-67
2022/11/13 11:22:18;;;;;;;13.40;7.50;;;18.80;98.90;;;;;;5013796;28;20048;-67
2022/11/13 11:26:02;;;;;;;7.65;5.40;;;19.40;97.70;;;;;;5013124;28;20056;-68
2022/11/13 11:29:45;;;;;;;9.40;5.70;;;19.70;96.00;;;;;;5013682;28;20101;-66
2022/11/13 11:33:18;;;;;;;9.57;5.60;;;20.10;96.10;;;;;;5013400;28;20056;-65
2022/11/13 11:36:58;;;;;;;8.48;5.03;;;20.10;95.90;;;;;;5011913;28;20037;-66
2022/11/13 11:40:29;;;;;;;8.00;5.72;;;20.60;96.30;;;;;;5013258;28;20033;-68
2022/11/13 11:44:20;;;;;;;11.82;7.47;;;20.30;94.90;;;;;;5013338;28;20041;-68
2022/11/13 11:47:43;;;;;;;11.55;7.75;;;20.40;95.40;;;;;;5014130;28;20065;-67
2022/11/13 11:51:18;;;;;;;19.20;8.73;;;20.10;96.40;;;;;;5013368;28;20049;-66
2022/11/13 11:54:59;;;;;;;13.15;8.32;;;19.60;96.20;;;;;;5013096;28;20068;-67
2022/11/13 11:58:37;;;;;;;10.57;8.73;;;19.40;96.90;;;;;;5013591;28;20054;-66
2022/11/13 12:02:34;;;;;;;10.60;7.90;;;18.80;97.30;;;;;;5012809;28;20044;-66
2022/11/13 12:06:19;;;;;;;14.50;6.80;;;19.30;97.10;;;;;;5013425;28;20066;-67
2022/11/13 12:10:19;;;;;;;11.82;7.03;;;18.60;97.30;;;;;;5012718;28;20393;-66
2022/11/13 12:13:57;;;;;;;11.00;7.90;;;18.30;97.80;;;;;;5012364;28;20528;-68
2022/11/13 12:17:28;;;;;;;10.32;6.68;;;18.30;98.00;;;;;;5013315;28;20061;-66
2022/11/13 12:21:06;;;;;;;11.25;6.70;;;19.10;97.10;;;;;;5012966;28;20393;-66
2022/11/13 12:24:40;;;;;;;11.10;6.30;;;20.90;95.10;;;;;;5012933;28;20049;-67
2022/11/13 12:28:27;;;;;;;7.88;5.97;;;21.80;92.90;;;;;;5012555;28;20049;-65
2022/11/13 12:32:03;;;;;;;15.90;8.13;;;20.20;94.40;;;;;;5012511;28;20057;-67
2022/11/13 12:35:27;;;;;;;12.18;7.72;;;19.10;96.00;;;;;;5012218;28;20049;-66
2022/11/13 12:39:26;;;;;;;12.15;7.50;;;19.20;95.60;;;;;;5012057;28;20057;-66
2022/11/13 12:42:58;;;;;;;9.10;6.22;;;19.30;95.80;;;;;;5014582;28;20060;-67
2022/11/13 12:46:21;;;;;;;;;;;19.70;94.90;;;;;;5012748;28;20041;-66
2022/11/13 12:49:45;;;;;;;9.10;6.60;;;18.50;96.80;;;;;;5012683;28;19917;-67
2022/11/13 12:53:10;;;;;;;12.30;8.55;;;18.30;96.40;;;;;;5011737;28;20053;-66
2022/11/13 12:56:33;;;;;;;10.48;7.63;;;18.50;97.10;;;;;;5012119;28;20065;-67
2022/11/13 12:59:59;;;;;;;10.60;7.43;;;19.30;96.80;;;;;;5012050;28;20033;-67
2022/11/13 13:03:36;;;;;;;11.32;6.90;;;20.40;96.30;;;;;;5011683;28;20049;-69
2022/11/13 13:07:16;;;;;;;7.47;6.13;;;21.40;93.80;;;;;;5012140;28;20416;-68
2022/11/13 13:11:17;;;;;;;12.75;6.80;;;20.90;93.30;;;;;;5011931;28;20041;-68
2022/11/13 13:14:59;;;;;;;11.77;7.18;;;19.80;94.70;;;;;;5011684;28;20048;-65
2022/11/13 13:18:36;;;;;;;9.48;7.25;;;19.20;96.20;;;;;;5011716;28;20041;-66
2022/11/13 13:21:59;;;;;;;8.70;6.60;;;18.70;96.50;;;;;;5012197;28;20050;-66
2022/11/13 13:25:32;;;;;;;9.13;6.43;;;18.30;96.60;;;;;;5011324;28;20385;-66
2022/11/13 13:28:56;;;;;;;;;;;17.80;95.90;;;;;;5012186;28;20045;-66
2022/11/13 13:32:47;;;;;;;9.18;6.97;;;17.20;97.20;;;;;;5010738;28;19920;-66
2022/11/13 13:36:28;;;;;;;9.27;6.70;;;17.00;97.70;;;;;;5011900;28;20106;-66
2022/11/13 13:40:00;;;;;;;11.15;7.05;;;16.50;98.30;;;;;;5011571;28;20048;-66
2022/11/13 13:44:03;;;;;;;9.70;7.00;;;16.20;98.70;;;;;;5011141;28;20049;-66
2022/11/13 13:47:30;;;;;;;14.32;7.50;;;16.30;98.20;;;;;;5011723;28;20044;-67
2022/11/13 13:50:54;;;;;;;11.43;7.05;;;16.30;98.50;;;;;;5011228;28;20492;-66
2022/11/13 13:54:27;;;;;;;10.93;7.68;;;16.10;99.00;;;;;;5011178;28;20049;-68
2022/11/13 13:57:50;;;;;;;10.65;7.40;;;15.80;98.80;;;;;;5011257;28;20060;-68
2022/11/13 14:01:26;;;;;;;9.05;6.70;;;15.70;99.50;;;;;;5015604;28;20057;-68
2022/11/13 14:04:52;;;;;;;14.30;6.97;;;15.60;98.80;;;;;;5015477;28;20057;-67
2022/11/13 14:08:19;;;;;;;10.63;7.28;;;15.60;98.60;;;;;;5015149;28;20166;-66
2022/11/13 14:11:42;;;;;;;9.80;7.10;;;15.50;98.60;;;;;;5014899;28;20044;-66
2022/11/13 14:15:23;;;;;;;8.93;6.97;;;15.60;98.90;;;;;;5014550;28;20057;-66
2022/11/13 14:18:45;;;;;;;15.30;8.65;;;15.70;99.00;;;;;;5015285;28;20045;-66
2022/11/13 14:22:11;;;;;;;18.00;10.52;;;15.80;99.80;;;;;;5014815;28;20507;-67
2022/11/13 14:25:34;;;;;;;14.38;9.23;;;15.90;99.90;;;;;;5014696;28;20048;-67
2022/11/13 14:28:59;;;;;;;14.05;9.27;;;15.90;99.90;;;;;;5015062;28;20049;-67
2022/11/13 14:32:29;;;;;;;14.82;7.88;;;15.90;99.80;;;;;;5014763;28;20397;-68
2022/11/13 14:35:54;;;;;;;10.48;7.25;;;15.80;99.60;;;;;;5014720;28;20045;-67
2022/11/13 14:39:28;;;;;;;11.40;7.43;;;15.60;99.80;;;;;;5014716;28;20049;-66
2022/11/13 14:42:56;;;;;;;12.63;8.60;;;15.50;99.90;;;;;;5014721;28;20049;-67
2022/11/13 14:46:43;;;;;;;11.40;8.35;;;15.50;99.90;;;;;;5014577;28;20041;-66
2022/11/13 14:50:49;;;;;;;15.75;8.13;;;15.40;99.90;;;;;;5014244;28;20052;-65
2022/11/13 14:54:32;;;;;;;10.30;7.03;;;15.30;99.90;;;;;;5027286;28;20049;-66
2022/11/13 14:57:55;;;;;;;15.98;9.40;;;15.10;99.90;;;;;;5014143;28;20405;-66
2022/11/13 15:01:21;;;;;;;22.00;12.10;;;15.10;99.90;;;;;;5014238;28;20048;-66
2022/11/13 15:04:43;;;;;;;12.68;8.02;;;15.00;99.90;;;;;;5014058;28;20061;-67
2022/11/13 15:08:12;;;;;;;13.32;9.10;;;14.90;99.90;;;;;;5014402;28;20041;-67
2022/11/13 15:11:39;;;;;;;13.73;8.68;;;14.80;99.90;;;;;;5013150;28;20037;-66
2022/11/13 15:15:01;;;;;;;10.52;7.55;;;14.70;99.90;;;;;;5013865;28;20516;-67
2022/11/13 15:18:25;;;;;;;18.27;10.93;;;14.80;99.90;;;;;;5014351;28;20045;-67
2022/11/13 15:21:47;;;;;;;14.13;10.27;;;14.70;99.90;;;;;;5014086;28;20508;-67
2022/11/13 15:25:15;;;;;;;17.80;10.23;;;14.60;99.90;;;;;;5013798;28;20045;-68
2022/11/13 15:28:39;;;;;;;14.15;9.98;;;14.60;99.90;;;;;;5014070;28;20365;-67
2022/11/13 15:32:03;;;;;;;15.30;9.70;;;14.60;99.90;;;;;;5013778;28;20516;-68
2022/11/13 15:35:25;;;;;;;13.18;9.52;;;14.50;99.90;;;;;;5013703;28;20045;-67
2022/11/13 15:38:49;;;;;;;21.65;11.02;;;14.40;99.90;;;;;;5013044;28;20049;-67
2022/11/13 15:42:15;;;;;;;14.20;9.20;;;14.30;99.90;;;;;;5013742;28;20044;-66
2022/11/13 15:45:39;;;;;;;15.95;10.20;;;14.20;99.90;;;;;;5013522;28;20048;-67
2022/11/13 15:49:02;;;;;;;15.38;9.93;;;14.20;99.90;;;;;;5013224;28;20109;-67
2022/11/13 15:52:29;;;;;;;12.60;8.18;;;14.10;99.90;;;;;;5013086;28;20049;-66
2022/11/13 15:55:52;;;;;;;12.23;8.15;;;14.10;99.90;;;;;;5013298;28;20045;-66
2022/11/13 15:59:16;;;;;;;15.23;9.57;;;14.10;99.90;;;;;;5013260;28;20037;-67
2022/11/13 16:02:38;;;;;;;13.48;8.82;;;14.10;99.90;;;;;;5013276;28;20052;-66
2022/11/13 16:06:02;;;;;;;15.02;8.95;;;14.10;99.90;;;;;;5011991;28;20045;-66
2022/11/13 16:09:25;;;;;;;16.15;8.05;;;14.10;99.90;;;;;;5013081;28;20389;-67
2022/11/13 16:12:49;;;;;;;14.27;9.43;;;14.10;99.90;;;;;;5013008;28;20049;-67
2022/11/13 16:16:25;;;;;;;17.95;8.95;;;14.00;99.90;;;;;;5012126;28;20049;-66
2022/11/13 16:19:53;;;;;;;14.30;9.75;;;14.00;99.90;;;;;;5012848;28;20057;-65
2022/11/13 16:23:18;;;;;;;23.77;10.52;;;13.90;99.90;;;;;;5011988;28;20045;-66
2022/11/13 16:26:48;;;;;;;17.35;10.27;;;13.90;99.90;;;;;;5012828;28;20069;-68
2022/11/13 16:30:14;;;;;;;18.42;10.82;;;13.90;99.90;;;;;;5012444;28;20056;-66
2022/11/13 16:33:36;;;;;;;15.00;11.30;;;14.00;99.90;;;;;;5012219;28;20044;-67
2022/11/13 16:37:00;;;;;;;18.95;12.20;;;13.90;99.90;;;;;;5012580;28;20057;-67
2022/11/13 16:40:25;;;;;;;20.05;12.48;;;13.90;99.90;;;;;;5012100;28;20033;-68
2022/11/13 16:43:47;;;;;;;17.40;11.10;;;13.80;99.90;;;;;;5020184;28;20048;-67
2022/11/13 16:47:19;;;;;;;;;;;13.80;99.90;;;;;;5012828;28;20072;-66
2022/11/13 16:50:41;;;;;;;15.32;9.57;;;13.80;99.90;;;;;;5012042;28;19916;-67
2022/11/13 16:54:04;;;;;;;17.77;10.25;;;13.80;99.90;;;;;;5011775;28;20155;-65
2022/11/13 16:57:29;;;;;;;12.93;9.38;;;13.80;99.90;;;;;;5012153;28;20041;-65
2022/11/13 17:00:52;;;;;;;;;;;13.70;99.90;;;;;;5012231;28;20056;-65
2022/11/13 17:04:15;;;;;;;13.10;10.00;;;13.70;99.90;;;;;;5011658;28;19920;-66
2022/11/13 17:07:38;;;;;;;15.40;10.70;;;13.70;99.90;;;;;;5011951;28;20492;-66
2022/11/13 17:11:00;;;;;;;13.23;9.20;;;13.70;99.90;;;;;;5012022;28;20049;-66
2022/11/13 17:14:23;;;;;;;15.52;10.57;;;13.70;99.90;;;;;;5011156;28;20045;-66
2022/11/13 17:17:46;;;;;;;13.35;10.23;;;13.70;99.90;;;;;;5011749;28;20052;-65
2022/11/13 17:21:10;;;;;;;17.08;11.85;;;13.70;99.90;;;;;;5011699;28;20052;-66
2022/11/13 17:24:33;;;;;;;19.10;12.60;;;13.70;99.90;;;;;;5011464;28;20049;-66
2022/11/13 17:27:56;;;;;;;21.85;16.95;;;13.50;99.90;;;;;;5019585;28;20595;-65
2022/11/13 17:31:19;;;;;;;23.45;14.35;;;13.30;99.90;;;;;;5011913;28;20044;-65
2022/11/13 17:34:42;;;;;;;25.95;18.63;;;13.20;99.90;;;;;;5011157;28;20045;-65
2022/11/13 17:38:05;;;;;;;24.88;15.60;;;13.00;99.90;;;;;;5011238;28;20045;-65
2022/11/13 17:41:28;;;;;;;25.45;15.70;;;12.90;99.90;;;;;;5011750;28;20113;-65
2022/11/13 17:44:51;;;;;;;21.88;15.10;;;12.80;99.90;;;;;;5011205;28;20037;-66
2022/11/13 17:48:15;;;;;;;22.20;16.00;;;12.70;99.90;;;;;;5011560;28;20040;-66
2022/11/13 17:51:37;;;;;;;19.80;13.77;;;12.80;99.90;;;;;;5019761;28;20052;-65
2022/11/13 17:55:04;;;;;;;23.17;15.27;;;12.70;99.90;;;;;;5011007;28;20045;-66
2022/11/13 17:58:28;;;;;;;26.17;16.85;;;12.80;99.90;;;;;;5011426;28;20041;-66
2022/11/13 18:01:50;;;;;;;25.70;16.27;;;12.70;99.90;;;;;;5010967;28;20048;-65
2022/11/13 18:05:14;;;;;;;22.60;14.35;;;12.70;99.90;;;;;;5010998;28;20045;-66